Tioga — WDB7231 — position and weather

sailwx.info

Track history (hours):
 
Tides and Currents Weather Stations Pressure Air Temp Water Temp Dewpoint Dewpoint Depression Visibility Wind Speed Wind Dir Waves Ship Positions

Tioga

Owner: WOODS HOLE OCEANOGRAPHIC INSTITUTION, WOODS HOLE, MA. More information available from US FCC via Universal Licensing System and Coast Guard Vessel Documentation Center.

Last reported at 2018-Feb-06 20:32 UTC. Time now 2018-Feb-19 02:19 UTC.
Position N 42°17' W 070°46'.
Warning: this ship's position is 12 days out of date.

Length 18 m; draft 1.5 m.

Type: Ship. MMSI: 366938840.

Date/timePositionNaut miles runAvg speedWind from/ knotsBaromVisibWave heightAir tempDewpointWater temp
2018-Feb-06 20:32N 42°17' W 070°46'018.0
2018-Feb-06 20:30N 42°17' W 070°47'8 4.8
2018-Feb-06 18:53N 42°21' W 070°56'514.2
2018-Feb-06 18:30N 42°25' W 070°52'612.0
2018-Feb-06 18:00N 42°27' W 070°44'510.3
2018-Feb-06 17:30N 42°29' W 070°38'2 4.7
2018-Feb-06 17:00N 42°27' W 070°40'713.1
2018-Feb-06 16:30N 42°23' W 070°47'1 2.7
2018-Feb-06 16:00N 42°22' W 070°47'3 6.5
2018-Feb-06 15:30N 42°21' W 070°42'3 5.1
2018-Feb-06 15:00N 42°19' W 070°44'4 2.4
2018-Feb-06 13:28N 42°15' W 070°43'1 2.1
2018-Feb-06 12:56N 42°16' W 070°44'716.1
2018-Feb-06 12:30N 42°19' W 070°53'4 2.5
2018-Feb-06 10:46N 42°15' W 070°55'0 0.0
2018-Feb-06 00:17N 42°15' W 070°55'  
Track history (hours):
 
Tides and Currents Weather Stations Pressure Air Temp Water Temp Dewpoint Dewpoint Depression Visibility Wind Speed Wind Dir Waves Ship Positions

Tioga

Owner: WOODS HOLE OCEANOGRAPHIC INSTITUTION, WOODS HOLE, MA. More information available from US FCC via Universal Licensing System and Coast Guard Vessel Documentation Center.

Last reported at 2018-Feb-06 20:32 UTC. Time now 2018-Feb-19 02:19 UTC.
Position N 42°17' W 070°46'.
Warning: this ship's position is 12 days out of date.

Length 18 m; draft 1.5 m.

Type: Ship. MMSI: 366938840.

Date/timePositionNaut miles runAvg speedWind from/ knotsBaromVisibWave heightAir tempDewpointWater temp
2018-Feb-06 20:32N 42°17' W 070°46'018.0
2018-Feb-06 20:30N 42°17' W 070°47'8 4.8
2018-Feb-06 18:53N 42°21' W 070°56'514.2
2018-Feb-06 18:30N 42°25' W 070°52'612.0
2018-Feb-06 18:00N 42°27' W 070°44'510.3
2018-Feb-06 17:30N 42°29' W 070°38'2 4.7
2018-Feb-06 17:00N 42°27' W 070°40'713.1
2018-Feb-06 16:30N 42°23' W 070°47'1 2.7
2018-Feb-06 16:00N 42°22' W 070°47'3 6.5
2018-Feb-06 15:30N 42°21' W 070°42'3 5.1
2018-Feb-06 15:00N 42°19' W 070°44'4 2.4
2018-Feb-06 13:28N 42°15' W 070°43'1 2.1
2018-Feb-06 12:56N 42°16' W 070°44'716.1
2018-Feb-06 12:30N 42°19' W 070°53'4 2.5
2018-Feb-06 10:46N 42°15' W 070°55'0 0.0
2018-Feb-06 00:17N 42°15' W 070°55'  

Dump ship's entire track history